Terminal Aerodrome Forecast
Issued by NWS

Home | Current Version | Previous Version | Text Only | Print | Product List | Glossary Off
Versions: 1 2 3 4 5 6 7 8 9 10 11 12 13 14 15 16 17 18

000
FTUS43 KBIS 220200 AAB
TAFJMS
TAF AMD
KJMS 220254Z 2203/2224 34025G35KT P6SM BKN050
     FM220600 35010KT P6SM VCFG SCT009 BKN018
     FM221600 01009KT P6SM SCT025 SCT060=

USA.gov is the U.S. government's official web portal to all federal, state and local government web resources and services.